Pagina principală
METAR-TAF:

METAR-TAF

Aeroporturi :

New Orleans, Louisiana, Statele Unite ale Americii

Latitudine: 30-02-58N, longitudine: 090-01-44W, elevație: 2 m

Observații meteo curente

Raportul a fost făcut în urmă cu 28 de minute, la 22:53 UTC
Vânt 8 kt de la Est/Sud-est
Temperatură 32°C
Umiditate 59%
Presiune 1016 hPa
Vizibilitate: 16.1 km
Cer senin

METAR: KNEW 222253Z 12008KT 10SM CLR 32/23 A2999 RMK AO2 SLP150 T03220233

Ora: 18:21 (23:21 UTC)

Prognoză

Raportul a fost făcut în urmă cu 5 ore și 57 de minute, la 17:24 UTC
Prognoză valabilă de la 22 ora 18 UTC la 23 ora 18 UTC
Vânt 9 kt de la Est/Sud-est
Vizibilitate: 10 km
Cer senin
De la 23 ora 0200 UTC
Vânt 3 kt din direcții variabile
Vizibilitate: 10 km
Cer senin
De la 23 ora 1500 UTC
Vânt 7 kt de la Nord/Nord-est
Vizibilitate: 10 km
Cer senin

TAF: KNEW 221724Z 2218/2318 11009KT P6SM SKC FM230200 VRB03KT P6SM SKC FM231500 03007KT P6SM SKC

Observații și prognoze meteo pentru peste 4.000 de aeroporturi (rapoarte METAR și TAF).

Stațiile disponibile sunt reprezentate pe hartă prin puncte galbene și roșii.

Țineți indicatorul mouse-ului pe punctul dorit pentru a vedea denumirea stației.

Apoi, faceți clic pentru a vedea observațiile și prognozele meteorologice.

Pentru a schimba harta: Pentru mărire, faceți clic pe butoanele verzi cu cruce neagră; pentru micșorare, pe butonul verde cu o liniuță; pentru hărți învecinate, pe săgețile verzi.


METAR-TAF: